sensor_id;sensor_type;location;lat;lon;timestamp;temperature;humidity
38131;DHT22;23947;51.894;4.622;2023-02-02T00:00:11;8.40;1.40
38131;DHT22;23947;51.894;4.622;2023-02-02T00:02:37;8.40;1.40
38131;DHT22;23947;51.894;4.622;2023-02-02T00:05:03;8.30;1.40
38131;DHT22;23947;51.894;4.622;2023-02-02T00:07:28;8.40;1.40
38131;DHT22;23947;51.894;4.622;2023-02-02T00:09:54;8.40;1.40
38131;DHT22;23947;51.894;4.622;2023-02-02T00:12:19;8.40;1.40
38131;DHT22;23947;51.894;4.622;2023-02-02T00:14:45;8.40;1.40
38131;DHT22;23947;51.894;4.622;2023-02-02T00:17:10;8.40;1.40
38131;DHT22;23947;51.894;4.622;2023-02-02T00:19:36;8.40;1.40
38131;DHT22;23947;51.894;4.622;2023-02-02T00:22:01;8.40;1.40
38131;DHT22;23947;51.894;4.622;2023-02-02T00:24:27;8.40;1.40
38131;DHT22;23947;51.894;4.622;2023-02-02T00:26:53;8.40;1.40
38131;DHT22;23947;51.894;4.622;2023-02-02T00:29:23;8.40;1.40
38131;DHT22;23947;51.894;4.622;2023-02-02T00:31:49;8.40;1.40
38131;DHT22;23947;51.894;4.622;2023-02-02T00:34:15;8.40;1.40
38131;DHT22;23947;51.894;4.622;2023-02-02T00:36:41;8.40;1.40
38131;DHT22;23947;51.894;4.622;2023-02-02T00:39:07;8.40;1.40
38131;DHT22;23947;51.894;4.622;2023-02-02T00:41:33;8.40;1.40
38131;DHT22;23947;51.894;4.622;2023-02-02T00:43:59;8.40;1.40
38131;DHT22;23947;51.894;4.622;2023-02-02T00:46:43;8.40;1.40
38131;DHT22;23947;51.894;4.622;2023-02-02T00:49:08;8.40;1.40
38131;DHT22;23947;51.894;4.622;2023-02-02T00:51:35;8.40;1.40
38131;DHT22;23947;51.894;4.622;2023-02-02T00:54:00;8.40;1.40
38131;DHT22;23947;51.894;4.622;2023-02-02T00:56:26;8.40;1.40
38131;DHT22;23947;51.894;4.622;2023-02-02T00:58:51;8.40;1.40
38131;DHT22;23947;51.894;4.622;2023-02-02T01:01:17;8.50;1.40
38131;DHT22;23947;51.894;4.622;2023-02-02T01:03:43;8.50;1.40
38131;DHT22;23947;51.894;4.622;2023-02-02T01:06:09;8.50;1.40
38131;DHT22;23947;51.894;4.622;2023-02-02T01:08:34;8.50;1.40
38131;DHT22;23947;51.894;4.622;2023-02-02T01:11:00;8.50;1.40
38131;DHT22;23947;51.894;4.622;2023-02-02T01:13:25;8.50;1.40
38131;DHT22;23947;51.894;4.622;2023-02-02T01:15:58;8.40;1.40
38131;DHT22;23947;51.894;4.622;2023-02-02T01:18:24;8.50;1.40
38131;DHT22;23947;51.894;4.622;2023-02-02T01:20:59;8.40;1.40
38131;DHT22;23947;51.894;4.622;2023-02-02T01:23:26;8.40;1.40
38131;DHT22;23947;51.894;4.622;2023-02-02T01:25:53;8.40;1.40
38131;DHT22;23947;51.894;4.622;2023-02-02T01:28:18;8.50;1.40
38131;DHT22;23947;51.894;4.622;2023-02-02T01:30:44;8.50;1.40
38131;DHT22;23947;51.894;4.622;2023-02-02T01:33:09;8.50;1.40
38131;DHT22;23947;51.894;4.622;2023-02-02T01:35:35;8.50;1.40
38131;DHT22;23947;51.894;4.622;2023-02-02T01:38:00;8.50;1.40
38131;DHT22;23947;51.894;4.622;2023-02-02T01:40:26;8.40;1.40
38131;DHT22;23947;51.894;4.622;2023-02-02T01:42:51;8.40;1.40
38131;DHT22;23947;51.894;4.622;2023-02-02T01:45:38;8.50;1.40
38131;DHT22;23947;51.894;4.622;2023-02-02T01:48:03;8.40;1.40
38131;DHT22;23947;51.894;4.622;2023-02-02T01:50:29;8.40;1.40
38131;DHT22;23947;51.894;4.622;2023-02-02T01:52:55;8.40;1.40
38131;DHT22;23947;51.894;4.622;2023-02-02T01:55:23;8.40;1.40
38131;DHT22;23947;51.894;4.622;2023-02-02T01:57:56;8.40;1.40
38131;DHT22;23947;51.894;4.622;2023-02-02T02:00:23;8.50;1.40
38131;DHT22;23947;51.894;4.622;2023-02-02T02:02:52;8.40;1.40
38131;DHT22;23947;51.894;4.622;2023-02-02T02:05:25;8.40;1.40
38131;DHT22;23947;51.894;4.622;2023-02-02T02:07:52;8.40;1.40
38131;DHT22;23947;51.894;4.622;2023-02-02T02:10:18;8.40;1.40
38131;DHT22;23947;51.894;4.622;2023-02-02T02:12:44;8.40;1.40
38131;DHT22;23947;51.894;4.622;2023-02-02T02:15:11;8.40;1.40
38131;DHT22;23947;51.894;4.622;2023-02-02T02:34:13;8.40;1.40
38131;DHT22;23947;51.894;4.622;2023-02-02T02:36:53;8.40;1.40
38131;DHT22;23947;51.894;4.622;2023-02-02T02:39:24;8.40;1.40
38131;DHT22;23947;51.894;4.622;2023-02-02T02:41:52;8.40;1.40
38131;DHT22;23947;51.894;4.622;2023-02-02T02:44:22;8.40;1.40
38131;DHT22;23947;51.894;4.622;2023-02-02T02:46:48;8.40;1.40
38131;DHT22;23947;51.894;4.622;2023-02-02T02:49:14;8.40;1.40
38131;DHT22;23947;51.894;4.622;2023-02-02T02:51:41;8.40;1.40
38131;DHT22;23947;51.894;4.622;2023-02-02T02:54:08;8.50;1.40
38131;DHT22;23947;51.894;4.622;2023-02-02T02:57:36;8.40;1.40
38131;DHT22;23947;51.894;4.622;2023-02-02T02:59:36;8.50;1.40
38131;DHT22;23947;51.894;4.622;2023-02-02T03:02:05;8.40;1.40
38131;DHT22;23947;51.894;4.622;2023-02-02T03:04:39;8.50;1.40
38131;DHT22;23947;51.894;4.622;2023-02-02T03:07:15;8.50;1.40
38131;DHT22;23947;51.894;4.622;2023-02-02T03:09:43;8.50;1.40
38131;DHT22;23947;51.894;4.622;2023-02-02T03:12:08;8.50;1.40
38131;DHT22;23947;51.894;4.622;2023-02-02T03:14:34;8.40;1.40
38131;DHT22;23947;51.894;4.622;2023-02-02T03:17:00;8.50;1.40
38131;DHT22;23947;51.894;4.622;2023-02-02T03:19:26;8.50;1.40
38131;DHT22;23947;51.894;4.622;2023-02-02T03:21:51;8.50;1.40
38131;DHT22;23947;51.894;4.622;2023-02-02T03:24:17;8.50;1.40
38131;DHT22;23947;51.894;4.622;2023-02-02T03:26:42;8.50;1.40
38131;DHT22;23947;51.894;4.622;2023-02-02T03:29:08;8.50;1.40
38131;DHT22;23947;51.894;4.622;2023-02-02T03:31:34;8.50;1.40
38131;DHT22;23947;51.894;4.622;2023-02-02T03:33:59;8.50;1.40
38131;DHT22;23947;51.894;4.622;2023-02-02T03:36:25;8.50;1.40
38131;DHT22;23947;51.894;4.622;2023-02-02T03:38:50;8.50;1.40
38131;DHT22;23947;51.894;4.622;2023-02-02T03:41:16;8.50;1.40
38131;DHT22;23947;51.894;4.622;2023-02-02T03:43:41;8.50;1.40
38131;DHT22;23947;51.894;4.622;2023-02-02T03:46:07;8.50;1.40
38131;DHT22;23947;51.894;4.622;2023-02-02T03:48:36;8.60;1.40
38131;DHT22;23947;51.894;4.622;2023-02-02T03:51:05;8.50;1.40
38131;DHT22;23947;51.894;4.622;2023-02-02T03:53:31;8.50;1.40
38131;DHT22;23947;51.894;4.622;2023-02-02T03:55:57;8.50;1.40
38131;DHT22;23947;51.894;4.622;2023-02-02T03:58:22;8.50;1.40
38131;DHT22;23947;51.894;4.622;2023-02-02T04:00:48;8.50;1.40
38131;DHT22;23947;51.894;4.622;2023-02-02T04:03:13;8.50;1.40
38131;DHT22;23947;51.894;4.622;2023-02-02T04:05:39;8.60;1.40
38131;DHT22;23947;51.894;4.622;2023-02-02T04:08:04;8.60;1.40
38131;DHT22;23947;51.894;4.622;2023-02-02T04:10:30;8.50;1.40
38131;DHT22;23947;51.894;4.622;2023-02-02T04:12:56;8.50;1.40
38131;DHT22;23947;51.894;4.622;2023-02-02T04:16:18;8.50;1.40
38131;DHT22;23947;51.894;4.622;2023-02-02T04:28:14;8.50;1.40
38131;DHT22;23947;51.894;4.622;2023-02-02T04:30:42;8.50;1.40
38131;DHT22;23947;51.894;4.622;2023-02-02T04:33:08;8.40;1.40
38131;DHT22;23947;51.894;4.622;2023-02-02T04:35:34;8.50;1.40
38131;DHT22;23947;51.894;4.622;2023-02-02T04:37:59;8.40;1.40
38131;DHT22;23947;51.894;4.622;2023-02-02T04:40:25;8.50;1.40
38131;DHT22;23947;51.894;4.622;2023-02-02T04:42:50;8.40;1.40
38131;DHT22;23947;51.894;4.622;2023-02-02T04:45:16;8.50;1.40
38131;DHT22;23947;51.894;4.622;2023-02-02T04:47:41;8.50;1.40
38131;DHT22;23947;51.894;4.622;2023-02-02T04:50:07;8.50;1.40
38131;DHT22;23947;51.894;4.622;2023-02-02T04:52:33;8.50;1.40
38131;DHT22;23947;51.894;4.622;2023-02-02T04:54:59;8.40;1.40
38131;DHT22;23947;51.894;4.622;2023-02-02T04:57:25;8.50;1.40
38131;DHT22;23947;51.894;4.622;2023-02-02T04:59:51;8.40;1.40
38131;DHT22;23947;51.894;4.622;2023-02-02T05:02:16;8.40;1.40
38131;DHT22;23947;51.894;4.622;2023-02-02T05:04:42;8.40;1.40
38131;DHT22;23947;51.894;4.622;2023-02-02T05:07:07;8.40;1.40
38131;DHT22;23947;51.894;4.622;2023-02-02T05:09:33;8.40;1.40
38131;DHT22;23947;51.894;4.622;2023-02-02T05:11:58;8.50;1.40
38131;DHT22;23947;51.894;4.622;2023-02-02T05:14:24;8.50;1.40
38131;DHT22;23947;51.894;4.622;2023-02-02T05:16:49;8.50;1.40
38131;DHT22;23947;51.894;4.622;2023-02-02T05:19:15;8.50;1.40
38131;DHT22;23947;51.894;4.622;2023-02-02T05:21:42;8.50;1.40
38131;DHT22;23947;51.894;4.622;2023-02-02T05:24:09;8.50;1.40
38131;DHT22;23947;51.894;4.622;2023-02-02T05:26:34;8.50;1.40
38131;DHT22;23947;51.894;4.622;2023-02-02T05:29:00;8.40;1.40
38131;DHT22;23947;51.894;4.622;2023-02-02T05:31:25;8.40;1.40
38131;DHT22;23947;51.894;4.622;2023-02-02T05:33:51;8.40;1.40
38131;DHT22;23947;51.894;4.622;2023-02-02T05:36:16;8.40;1.40
38131;DHT22;23947;51.894;4.622;2023-02-02T05:38:42;8.40;1.40
38131;DHT22;23947;51.894;4.622;2023-02-02T05:41:07;8.40;1.40
38131;DHT22;23947;51.894;4.622;2023-02-02T05:43:33;8.40;1.40
38131;DHT22;23947;51.894;4.622;2023-02-02T05:45:59;8.40;1.40
38131;DHT22;23947;51.894;4.622;2023-02-02T05:48:24;8.40;1.40
38131;DHT22;23947;51.894;4.622;2023-02-02T05:51:01;8.40;1.40
38131;DHT22;23947;51.894;4.622;2023-02-02T05:53:28;8.30;1.40
38131;DHT22;23947;51.894;4.622;2023-02-02T05:55:54;8.40;1.40
38131;DHT22;23947;51.894;4.622;2023-02-02T05:58:19;8.40;1.40
38131;DHT22;23947;51.894;4.622;2023-02-02T06:00:45;8.40;1.40
38131;DHT22;23947;51.894;4.622;2023-02-02T06:03:10;8.30;1.40
38131;DHT22;23947;51.894;4.622;2023-02-02T06:05:37;8.30;1.40
38131;DHT22;23947;51.894;4.622;2023-02-02T06:08:03;8.30;1.40
38131;DHT22;23947;51.894;4.622;2023-02-02T06:10:28;8.30;1.40
38131;DHT22;23947;51.894;4.622;2023-02-02T06:12:56;8.30;1.40
38131;DHT22;23947;51.894;4.622;2023-02-02T06:15:21;8.30;1.40
38131;DHT22;23947;51.894;4.622;2023-02-02T06:17:47;8.30;1.40
38131;DHT22;23947;51.894;4.622;2023-02-02T06:20:12;8.30;1.40
38131;DHT22;23947;51.894;4.622;2023-02-02T06:22:38;8.30;1.40
38131;DHT22;23947;51.894;4.622;2023-02-02T06:25:04;8.30;1.40
38131;DHT22;23947;51.894;4.622;2023-02-02T06:27:30;8.30;1.40
38131;DHT22;23947;51.894;4.622;2023-02-02T06:29:55;8.30;1.40
38131;DHT22;23947;51.894;4.622;2023-02-02T06:32:21;8.30;1.40
38131;DHT22;23947;51.894;4.622;2023-02-02T06:34:46;8.30;1.40
38131;DHT22;23947;51.894;4.622;2023-02-02T06:37:12;8.30;1.40
38131;DHT22;23947;51.894;4.622;2023-02-02T06:39:37;8.30;1.40
38131;DHT22;23947;51.894;4.622;2023-02-02T06:42:03;8.30;1.40
38131;DHT22;23947;51.894;4.622;2023-02-02T06:44:28;8.30;1.40
38131;DHT22;23947;51.894;4.622;2023-02-02T06:46:54;8.30;1.40
38131;DHT22;23947;51.894;4.622;2023-02-02T06:49:20;8.30;1.40
38131;DHT22;23947;51.894;4.622;2023-02-02T06:51:46;8.30;1.40
38131;DHT22;23947;51.894;4.622;2023-02-02T06:54:12;8.20;1.40
38131;DHT22;23947;51.894;4.622;2023-02-02T06:56:37;8.20;1.40
38131;DHT22;23947;51.894;4.622;2023-02-02T06:59:03;8.20;1.40
38131;DHT22;23947;51.894;4.622;2023-02-02T07:01:28;8.20;1.40
38131;DHT22;23947;51.894;4.622;2023-02-02T07:03:54;8.20;1.40
38131;DHT22;23947;51.894;4.622;2023-02-02T07:06:21;8.20;1.40
38131;DHT22;23947;51.894;4.622;2023-02-02T07:08:47;8.20;1.40
38131;DHT22;23947;51.894;4.622;2023-02-02T07:11:14;8.20;1.40
38131;DHT22;23947;51.894;4.622;2023-02-02T07:13:40;8.20;1.40
38131;DHT22;23947;51.894;4.622;2023-02-02T07:16:06;8.20;1.40
38131;DHT22;23947;51.894;4.622;2023-02-02T07:18:33;8.20;1.40
38131;DHT22;23947;51.894;4.622;2023-02-02T07:21:01;8.20;1.40
38131;DHT22;23947;51.894;4.622;2023-02-02T07:23:27;8.20;1.40
38131;DHT22;23947;51.894;4.622;2023-02-02T07:25:59;8.20;1.40
38131;DHT22;23947;51.894;4.622;2023-02-02T07:28:26;8.20;1.40
38131;DHT22;23947;51.894;4.622;2023-02-02T07:30:52;8.10;1.40
38131;DHT22;23947;51.894;4.622;2023-02-02T07:33:17;8.10;1.40
38131;DHT22;23947;51.894;4.622;2023-02-02T07:35:42;8.10;1.40
38131;DHT22;23947;51.894;4.622;2023-02-02T07:38:08;8.10;1.40
38131;DHT22;23947;51.894;4.622;2023-02-02T07:40:33;8.10;1.40
38131;DHT22;23947;51.894;4.622;2023-02-02T07:42:59;8.10;1.40
38131;DHT22;23947;51.894;4.622;2023-02-02T07:45:26;8.10;1.40
38131;DHT22;23947;51.894;4.622;2023-02-02T07:47:55;8.10;1.40
38131;DHT22;23947;51.894;4.622;2023-02-02T07:50:21;8.10;1.40
38131;DHT22;23947;51.894;4.622;2023-02-02T07:52:47;8.10;1.40
38131;DHT22;23947;51.894;4.622;2023-02-02T07:55:13;8.10;1.40
38131;DHT22;23947;51.894;4.622;2023-02-02T07:57:38;8.10;1.40
38131;DHT22;23947;51.894;4.622;2023-02-02T08:00:04;8.10;1.40
38131;DHT22;23947;51.894;4.622;2023-02-02T08:02:29;8.10;1.40
38131;DHT22;23947;51.894;4.622;2023-02-02T08:04:55;8.10;1.40
38131;DHT22;23947;51.894;4.622;2023-02-02T08:07:20;8.10;1.40
38131;DHT22;23947;51.894;4.622;2023-02-02T08:09:49;8.10;1.40
38131;DHT22;23947;51.894;4.622;2023-02-02T08:12:15;8.10;1.40
38131;DHT22;23947;51.894;4.622;2023-02-02T08:14:40;8.10;1.40
38131;DHT22;23947;51.894;4.622;2023-02-02T08:17:06;8.10;1.40
38131;DHT22;23947;51.894;4.622;2023-02-02T08:19:31;8.10;1.40
38131;DHT22;23947;51.894;4.622;2023-02-02T08:21:57;8.10;1.40
38131;DHT22;23947;51.894;4.622;2023-02-02T08:24:22;8.10;1.40
38131;DHT22;23947;51.894;4.622;2023-02-02T08:26:48;8.10;1.40
38131;DHT22;23947;51.894;4.622;2023-02-02T08:29:13;8.20;1.40
38131;DHT22;23947;51.894;4.622;2023-02-02T08:31:42;8.20;1.40
38131;DHT22;23947;51.894;4.622;2023-02-02T08:34:08;8.20;1.40
38131;DHT22;23947;51.894;4.622;2023-02-02T08:36:33;8.20;1.40
38131;DHT22;23947;51.894;4.622;2023-02-02T08:39:06;8.20;1.40
38131;DHT22;23947;51.894;4.622;2023-02-02T08:41:32;8.30;1.40
38131;DHT22;23947;51.894;4.622;2023-02-02T08:43:58;8.30;1.40
38131;DHT22;23947;51.894;4.622;2023-02-02T08:46:23;8.30;1.40
38131;DHT22;23947;51.894;4.622;2023-02-02T08:48:49;8.30;1.40
38131;DHT22;23947;51.894;4.622;2023-02-02T08:51:16;8.30;1.40
38131;DHT22;23947;51.894;4.622;2023-02-02T08:53:42;8.30;1.40
38131;DHT22;23947;51.894;4.622;2023-02-02T08:56:11;8.40;1.40
38131;DHT22;23947;51.894;4.622;2023-02-02T08:58:36;8.30;1.40
38131;DHT22;23947;51.894;4.622;2023-02-02T09:01:03;8.40;1.40
38131;DHT22;23947;51.894;4.622;2023-02-02T09:03:28;8.30;1.40
38131;DHT22;23947;51.894;4.622;2023-02-02T09:05:54;8.40;1.40
38131;DHT22;23947;51.894;4.622;2023-02-02T09:08:19;8.40;1.40
38131;DHT22;23947;51.894;4.622;2023-02-02T09:10:45;8.40;1.40
38131;DHT22;23947;51.894;4.622;2023-02-02T09:13:10;8.40;1.40
38131;DHT22;23947;51.894;4.622;2023-02-02T09:15:36;8.40;1.40
38131;DHT22;23947;51.894;4.622;2023-02-02T09:18:02;8.40;1.40
38131;DHT22;23947;51.894;4.622;2023-02-02T09:20:28;8.40;1.40
38131;DHT22;23947;51.894;4.622;2023-02-02T09:22:54;8.40;1.40
38131;DHT22;23947;51.894;4.622;2023-02-02T09:25:20;8.40;1.40
38131;DHT22;23947;51.894;4.622;2023-02-02T09:27:45;8.40;1.40
38131;DHT22;23947;51.894;4.622;2023-02-02T09:30:11;8.40;1.40
38131;DHT22;23947;51.894;4.622;2023-02-02T09:32:37;8.40;1.40
38131;DHT22;23947;51.894;4.622;2023-02-02T09:35:02;8.50;1.40
38131;DHT22;23947;51.894;4.622;2023-02-02T09:37:29;8.40;1.40
38131;DHT22;23947;51.894;4.622;2023-02-02T09:39:54;8.50;1.40
38131;DHT22;23947;51.894;4.622;2023-02-02T09:42:26;8.50;1.40
38131;DHT22;23947;51.894;4.622;2023-02-02T09:45:06;8.50;1.40
38131;DHT22;23947;51.894;4.622;2023-02-02T09:47:35;8.60;1.40
38131;DHT22;23947;51.894;4.622;2023-02-02T09:52:38;8.80;1.40
38131;DHT22;23947;51.894;4.622;2023-02-02T09:55:08;8.80;1.40
38131;DHT22;23947;51.894;4.622;2023-02-02T09:57:36;8.80;1.40
38131;DHT22;23947;51.894;4.622;2023-02-02T10:00:04;8.90;1.40
38131;DHT22;23947;51.894;4.622;2023-02-02T10:02:32;8.90;1.40
38131;DHT22;23947;51.894;4.622;2023-02-02T10:05:07;8.90;1.40
38131;DHT22;23947;51.894;4.622;2023-02-02T10:07:37;8.90;1.40
38131;DHT22;23947;51.894;4.622;2023-02-02T10:10:04;9.00;1.40
38131;DHT22;23947;51.894;4.622;2023-02-02T10:12:43;9.00;1.40
38131;DHT22;23947;51.894;4.622;2023-02-02T10:17:39;9.00;1.40
38131;DHT22;23947;51.894;4.622;2023-02-02T10:22:43;9.00;1.40
38131;DHT22;23947;51.894;4.622;2023-02-02T10:25:13;8.90;1.40
38131;DHT22;23947;51.894;4.622;2023-02-02T10:27:40;8.90;1.40
38131;DHT22;23947;51.894;4.622;2023-02-02T10:30:15;8.90;1.40
38131;DHT22;23947;51.894;4.622;2023-02-02T10:35:52;8.90;1.40
38131;DHT22;23947;51.894;4.622;2023-02-02T10:43:26;8.90;1.40
38131;DHT22;23947;51.894;4.622;2023-02-02T10:46:14;9.00;1.40
38131;DHT22;23947;51.894;4.622;2023-02-02T10:48:42;9.00;1.40
38131;DHT22;23947;51.894;4.622;2023-02-02T10:51:17;9.00;1.40
38131;DHT22;23947;51.894;4.622;2023-02-02T10:53:45;9.00;1.40
38131;DHT22;23947;51.894;4.622;2023-02-02T10:56:15;9.00;1.40
38131;DHT22;23947;51.894;4.622;2023-02-02T10:58:54;9.00;1.40
38131;DHT22;23947;51.894;4.622;2023-02-02T11:01:21;9.00;1.40
38131;DHT22;23947;51.894;4.622;2023-02-02T11:03:47;8.90;1.40
38131;DHT22;23947;51.894;4.622;2023-02-02T11:06:34;9.00;1.40
38131;DHT22;23947;51.894;4.622;2023-02-02T11:09:16;9.00;1.40
38131;DHT22;23947;51.894;4.622;2023-02-02T11:11:43;9.00;1.40
38131;DHT22;23947;51.894;4.622;2023-02-02T11:14:14;9.00;1.40
38131;DHT22;23947;51.894;4.622;2023-02-02T11:16:41;9.10;1.40
38131;DHT22;23947;51.894;4.622;2023-02-02T11:21:45;9.10;1.40
38131;DHT22;23947;51.894;4.622;2023-02-02T11:24:33;9.10;1.40
38131;DHT22;23947;51.894;4.622;2023-02-02T11:29:28;9.00;1.40
38131;DHT22;23947;51.894;4.622;2023-02-02T11:31:55;9.10;1.40
38131;DHT22;23947;51.894;4.622;2023-02-02T11:34:22;9.00;1.40
38131;DHT22;23947;51.894;4.622;2023-02-02T11:36:58;9.00;1.40
38131;DHT22;23947;51.894;4.622;2023-02-02T11:39:24;9.00;1.40
38131;DHT22;23947;51.894;4.622;2023-02-02T11:41:50;9.10;1.40
38131;DHT22;23947;51.894;4.622;2023-02-02T11:44:23;9.00;1.40
38131;DHT22;23947;51.894;4.622;2023-02-02T11:46:49;9.00;1.40
38131;DHT22;23947;51.894;4.622;2023-02-02T11:49:17;9.00;1.40
38131;DHT22;23947;51.894;4.622;2023-02-02T11:51:49;8.90;1.40
38131;DHT22;23947;51.894;4.622;2023-02-02T11:54:25;8.90;1.40
38131;DHT22;23947;51.894;4.622;2023-02-02T11:56:53;8.90;1.40
38131;DHT22;23947;51.894;4.622;2023-02-02T11:59:28;8.90;1.40
38131;DHT22;23947;51.894;4.622;2023-02-02T12:04:38;8.90;1.40
38131;DHT22;23947;51.894;4.622;2023-02-02T12:10:00;8.80;1.40
38131;DHT22;23947;51.894;4.622;2023-02-02T12:45:38;8.50;1.40
38131;DHT22;23947;51.894;4.622;2023-02-02T13:02:17;8.00;1.40
38131;DHT22;23947;51.894;4.622;2023-02-02T13:07:43;7.90;1.40
38131;DHT22;23947;51.894;4.622;2023-02-02T13:10:12;7.80;1.40
38131;DHT22;23947;51.894;4.622;2023-02-02T13:13:24;7.80;1.40
38131;DHT22;23947;51.894;4.622;2023-02-02T13:15:41;7.70;1.40
38131;DHT22;23947;51.894;4.622;2023-02-02T13:18:09;7.80;1.40
38131;DHT22;23947;51.894;4.622;2023-02-02T13:20:43;7.80;1.40
38131;DHT22;23947;51.894;4.622;2023-02-02T13:23:12;7.70;1.40
38131;DHT22;23947;51.894;4.622;2023-02-02T13:25:55;7.70;1.40
38131;DHT22;23947;51.894;4.622;2023-02-02T13:31:00;7.70;1.40
38131;DHT22;23947;51.894;4.622;2023-02-02T13:33:28;7.70;1.40
38131;DHT22;23947;51.894;4.622;2023-02-02T13:35:54;7.70;1.40
38131;DHT22;23947;51.894;4.622;2023-02-02T13:38:23;7.70;1.40
38131;DHT22;23947;51.894;4.622;2023-02-02T13:40:49;7.70;1.40
38131;DHT22;23947;51.894;4.622;2023-02-02T13:50:56;7.60;1.40
38131;DHT22;23947;51.894;4.622;2023-02-02T13:58:54;7.70;1.40
38131;DHT22;23947;51.894;4.622;2023-02-02T14:01:24;7.60;1.40
38131;DHT22;23947;51.894;4.622;2023-02-02T14:03:52;7.60;1.40
38131;DHT22;23947;51.894;4.622;2023-02-02T14:06:19;7.60;1.40
38131;DHT22;23947;51.894;4.622;2023-02-02T14:08:51;7.60;1.40
38131;DHT22;23947;51.894;4.622;2023-02-02T14:11:22;7.60;1.40
38131;DHT22;23947;51.894;4.622;2023-02-02T14:13:51;7.60;1.40
38131;DHT22;23947;51.894;4.622;2023-02-02T14:19:02;7.60;1.40
38131;DHT22;23947;51.894;4.622;2023-02-02T14:26:45;7.70;1.40
38131;DHT22;23947;51.894;4.622;2023-02-02T14:32:03;7.70;1.40
38131;DHT22;23947;51.894;4.622;2023-02-02T14:34:47;7.80;1.40
38131;DHT22;23947;51.894;4.622;2023-02-02T14:42:22;7.80;1.40
38131;DHT22;23947;51.894;4.622;2023-02-02T14:50:31;7.70;1.40
38131;DHT22;23947;51.894;4.622;2023-02-02T14:53:02;7.70;1.40
38131;DHT22;23947;51.894;4.622;2023-02-02T14:55:29;7.70;1.40
38131;DHT22;23947;51.894;4.622;2023-02-02T14:57:55;7.70;1.40
38131;DHT22;23947;51.894;4.622;2023-02-02T15:00:22;7.70;1.40
38131;DHT22;23947;51.894;4.622;2023-02-02T15:02:49;7.70;1.40
38131;DHT22;23947;51.894;4.622;2023-02-02T15:05:53;7.70;1.40
38131;DHT22;23947;51.894;4.622;2023-02-02T15:13:18;7.80;1.40
38131;DHT22;23947;51.894;4.622;2023-02-02T15:15:45;7.80;1.40
38131;DHT22;23947;51.894;4.622;2023-02-02T15:18:15;7.70;1.40
38131;DHT22;23947;51.894;4.622;2023-02-02T15:20:49;7.70;1.40
38131;DHT22;23947;51.894;4.622;2023-02-02T15:26:14;7.80;1.40
38131;DHT22;23947;51.894;4.622;2023-02-02T15:28:43;7.80;1.40
38131;DHT22;23947;51.894;4.622;2023-02-02T15:31:17;7.80;1.40
38131;DHT22;23947;51.894;4.622;2023-02-02T15:33:48;7.80;1.40
38131;DHT22;23947;51.894;4.622;2023-02-02T15:36:18;7.90;1.40
38131;DHT22;23947;51.894;4.622;2023-02-02T15:38:45;7.90;1.40
38131;DHT22;23947;51.894;4.622;2023-02-02T15:43:37;7.90;1.40
38131;DHT22;23947;51.894;4.622;2023-02-02T15:46:04;7.90;1.40
38131;DHT22;23947;51.894;4.622;2023-02-02T15:48:31;7.90;1.40
38131;DHT22;23947;51.894;4.622;2023-02-02T15:50:58;8.00;1.40
38131;DHT22;23947;51.894;4.622;2023-02-02T15:53:30;8.00;1.40
38131;DHT22;23947;51.894;4.622;2023-02-02T15:55:56;8.00;1.40
38131;DHT22;23947;51.894;4.622;2023-02-02T15:58:31;8.00;1.40
38131;DHT22;23947;51.894;4.622;2023-02-02T16:03:29;8.00;1.40
38131;DHT22;23947;51.894;4.622;2023-02-02T16:05:56;8.10;1.40
38131;DHT22;23947;51.894;4.622;2023-02-02T16:08:27;8.10;1.40
38131;DHT22;23947;51.894;4.622;2023-02-02T16:11:03;8.10;1.40
38131;DHT22;23947;51.894;4.622;2023-02-02T16:13:29;8.10;1.40
38131;DHT22;23947;51.894;4.622;2023-02-02T16:15:56;8.20;1.40
38131;DHT22;23947;51.894;4.622;2023-02-02T16:18:22;8.20;1.40
38131;DHT22;23947;51.894;4.622;2023-02-02T16:20:47;8.20;1.40
38131;DHT22;23947;51.894;4.622;2023-02-02T16:23:14;8.20;1.40
38131;DHT22;23947;51.894;4.622;2023-02-02T16:25:43;8.20;1.40
38131;DHT22;23947;51.894;4.622;2023-02-02T16:28:11;8.20;1.40
38131;DHT22;23947;51.894;4.622;2023-02-02T16:30:37;8.30;1.40
38131;DHT22;23947;51.894;4.622;2023-02-02T16:35:47;8.30;1.40
38131;DHT22;23947;51.894;4.622;2023-02-02T16:40:44;8.30;1.40
38131;DHT22;23947;51.894;4.622;2023-02-02T16:43:19;8.30;1.40
38131;DHT22;23947;51.894;4.622;2023-02-02T16:45:46;8.30;1.40
38131;DHT22;23947;51.894;4.622;2023-02-02T16:48:19;8.30;1.40
38131;DHT22;23947;51.894;4.622;2023-02-02T16:51:00;8.30;1.40
38131;DHT22;23947;51.894;4.622;2023-02-02T16:53:26;8.30;1.40
38131;DHT22;23947;51.894;4.622;2023-02-02T16:55:52;8.30;1.40
38131;DHT22;23947;51.894;4.622;2023-02-02T16:58:20;8.30;1.40
38131;DHT22;23947;51.894;4.622;2023-02-02T17:01:19;8.30;1.40
38131;DHT22;23947;51.894;4.622;2023-02-02T17:03:38;8.30;1.40
38131;DHT22;23947;51.894;4.622;2023-02-02T17:06:06;8.40;1.40
38131;DHT22;23947;51.894;4.622;2023-02-02T17:08:36;8.40;1.40
38131;DHT22;23947;51.894;4.622;2023-02-02T17:11:07;8.40;1.40
38131;DHT22;23947;51.894;4.622;2023-02-02T17:13:43;8.30;1.40
38131;DHT22;23947;51.894;4.622;2023-02-02T17:16:16;8.30;1.40
38131;DHT22;23947;51.894;4.622;2023-02-02T17:18:43;8.20;1.40
38131;DHT22;23947;51.894;4.622;2023-02-02T17:21:12;8.30;1.40
38131;DHT22;23947;51.894;4.622;2023-02-02T17:23:38;8.20;1.40
38131;DHT22;23947;51.894;4.622;2023-02-02T17:26:05;8.30;1.40
38131;DHT22;23947;51.894;4.622;2023-02-02T17:28:31;8.20;1.40
38131;DHT22;23947;51.894;4.622;2023-02-02T17:33:22;8.30;1.40
38131;DHT22;23947;51.894;4.622;2023-02-02T17:35:48;8.20;1.40
38131;DHT22;23947;51.894;4.622;2023-02-02T17:38:17;8.20;1.40
38131;DHT22;23947;51.894;4.622;2023-02-02T17:40:43;8.20;1.40
38131;DHT22;23947;51.894;4.622;2023-02-02T17:43:09;8.20;1.40
38131;DHT22;23947;51.894;4.622;2023-02-02T17:45:35;8.20;1.40
38131;DHT22;23947;51.894;4.622;2023-02-02T17:48:01;8.20;1.40
38131;DHT22;23947;51.894;4.622;2023-02-02T17:50:28;8.20;1.40
38131;DHT22;23947;51.894;4.622;2023-02-02T17:52:54;8.20;1.40
38131;DHT22;23947;51.894;4.622;2023-02-02T17:55:23;8.20;1.40
38131;DHT22;23947;51.894;4.622;2023-02-02T17:57:50;8.10;1.40
38131;DHT22;23947;51.894;4.622;2023-02-02T18:00:16;8.10;1.40
38131;DHT22;23947;51.894;4.622;2023-02-02T18:02:42;8.00;1.40
38131;DHT22;23947;51.894;4.622;2023-02-02T18:05:08;8.00;1.40
38131;DHT22;23947;51.894;4.622;2023-02-02T18:07:33;8.10;1.40
38131;DHT22;23947;51.894;4.622;2023-02-02T18:09:59;8.10;1.40
38131;DHT22;23947;51.894;4.622;2023-02-02T18:12:25;8.10;1.40
38131;DHT22;23947;51.894;4.622;2023-02-02T18:14:50;8.00;1.40
38131;DHT22;23947;51.894;4.622;2023-02-02T18:17:16;8.00;1.40
38131;DHT22;23947;51.894;4.622;2023-02-02T18:19:41;8.00;1.40
38131;DHT22;23947;51.894;4.622;2023-02-02T18:22:10;8.00;1.40
38131;DHT22;23947;51.894;4.622;2023-02-02T18:24:35;8.00;1.40
38131;DHT22;23947;51.894;4.622;2023-02-02T18:27:01;8.10;1.40
38131;DHT22;23947;51.894;4.622;2023-02-02T18:29:27;8.00;1.40
38131;DHT22;23947;51.894;4.622;2023-02-02T18:31:52;8.00;1.40
38131;DHT22;23947;51.894;4.622;2023-02-02T18:34:18;8.10;1.40
38131;DHT22;23947;51.894;4.622;2023-02-02T18:36:43;8.00;1.40
38131;DHT22;23947;51.894;4.622;2023-02-02T18:39:09;8.00;1.40
38131;DHT22;23947;51.894;4.622;2023-02-02T18:41:34;8.00;1.40
38131;DHT22;23947;51.894;4.622;2023-02-02T18:44:00;8.00;1.40
38131;DHT22;23947;51.894;4.622;2023-02-02T18:46:25;8.00;1.40